PHSTW EHLE-EHLE
Flight info
| Callsign | PHSTW |
|---|---|
| Flight time | 0h 9m |
| Altitude | 1500 |
| Route | LE101 DCT LE102 DCT ASBES DCT DOTIX DCT LE151 DCT IDGOK DCT KUVOS DCT LE124 |
| Aircraft | C172/L-SFG/C |
Departure
| Time | 2026-04-21 09:17 |
|---|---|
| Airport | Lelystad Airport (EHLE) |
Arrival
| Time | 2026-04-21 09:27 |
|---|---|
| Airport | Lelystad Airport (EHLE) |
| Time | Latitude | Longitude | Altitude | Speed | Heading |
|---|---|---|---|---|---|
| 2026-04-21 09:09 | 52.45234 | 5.51775 | -11 ft | 0 kts | 136° |
| 2026-04-21 09:11 | 52.45234 | 5.51776 | -11 ft | 0 kts | 133° |
| 2026-04-21 09:11 | 52.45230 | 5.51778 | -11 ft | 0 kts | 182° |
| 2026-04-21 09:12 | 52.45231 | 5.51748 | -11 ft | 4 kts | 281° |
| 2026-04-21 09:12 | 52.45230 | 5.51719 | -10 ft | 1 kts | 312° |
| 2026-04-21 09:12 | 52.45230 | 5.51718 | -10 ft | 0 kts | 313° |
| 2026-04-21 09:12 | 52.45240 | 5.51702 | -10 ft | 6 kts | 280° |
| 2026-04-21 09:13 | 52.45219 | 5.51650 | -10 ft | 6 kts | 243° |
| 2026-04-21 09:13 | 52.45174 | 5.51567 | -10 ft | 14 kts | 230° |
| 2026-04-21 09:13 | 52.45121 | 5.51474 | -10 ft | 0 kts | 226° |
| 2026-04-21 09:13 | 52.45110 | 5.51455 | -10 ft | 8 kts | 232° |
| 2026-04-21 09:14 | 52.45068 | 5.51379 | -10 ft | 9 kts | 227° |
| 2026-04-21 09:14 | 52.45032 | 5.51310 | -11 ft | 4 kts | 244° |
| 2026-04-21 09:14 | 52.45028 | 5.51281 | -11 ft | 1 kts | 291° |
| 2026-04-21 09:14 | 52.45035 | 5.51269 | -11 ft | 6 kts | 316° |
| 2026-04-21 09:15 | 52.45070 | 5.51223 | -10 ft | 0 kts | 316° |
| 2026-04-21 09:15 | 52.45072 | 5.51219 | -10 ft | 5 kts | 318° |
| 2026-04-21 09:15 | 52.45119 | 5.51146 | -10 ft | 10 kts | 321° |
| 2026-04-21 09:15 | 52.45149 | 5.51138 | -10 ft | 0 kts | 55° |
| 2026-04-21 09:16 | 52.45151 | 5.51141 | -10 ft | 5 kts | 54° |
| 2026-04-21 09:16 | 52.45291 | 5.51402 | -9 ft | 55 kts | 46° |
| 2026-04-21 09:16 | 52.45620 | 5.51970 | 105 ft | 74 kts | 48° |
| 2026-04-21 09:17 | 52.46004 | 5.52585 | 304 ft | 78 kts | 44° |
| 2026-04-21 09:17 | 52.46404 | 5.53178 | 531 ft | 75 kts | 43° |
| 2026-04-21 09:17 | 52.46832 | 5.53506 | 847 ft | 73 kts | 5° |
| 2026-04-21 09:17 | 52.47243 | 5.52848 | 1054 ft | 99 kts | 287° |
| 2026-04-21 09:18 | 52.47048 | 5.51672 | 1127 ft | 116 kts | 232° |
| 2026-04-21 09:18 | 52.46537 | 5.50554 | 1053 ft | 123 kts | 230° |
| 2026-04-21 09:18 | 52.46011 | 5.49501 | 1007 ft | 117 kts | 230° |
| 2026-04-21 09:18 | 52.45520 | 5.48491 | 914 ft | 104 kts | 229° |
| 2026-04-21 09:19 | 52.45073 | 5.47590 | 840 ft | 98 kts | 229° |
| 2026-04-21 09:19 | 52.44630 | 5.46797 | 753 ft | 93 kts | 211° |
| 2026-04-21 09:19 | 52.44055 | 5.46731 | 569 ft | 80 kts | 133° |
| 2026-04-21 09:19 | 52.43837 | 5.47448 | 477 ft | 66 kts | 92° |
| 2026-04-21 09:20 | 52.43799 | 5.48151 | 432 ft | 62 kts | 79° |
| 2026-04-21 09:20 | 52.43852 | 5.48626 | 352 ft | 67 kts | 64° |
| 2026-04-21 09:20 | 52.44119 | 5.49281 | 206 ft | 68 kts | 50° |
| 2026-04-21 09:20 | 52.44508 | 5.49984 | 65 ft | 63 kts | 50° |
| 2026-04-21 09:21 | 52.44701 | 5.50344 | 23 ft | 59 kts | 49° |
| 2026-04-21 09:21 | 52.44950 | 5.50792 | -10 ft | 58 kts | 45° |
| 2026-04-21 09:21 | 52.45267 | 5.51319 | 139 ft | 69 kts | 46° |
| 2026-04-21 09:21 | 52.45635 | 5.51857 | 356 ft | 72 kts | 44° |
| 2026-04-21 09:22 | 52.45996 | 5.52410 | 604 ft | 70 kts | 48° |
| 2026-04-21 09:22 | 52.46379 | 5.52992 | 715 ft | 81 kts | 47° |
| 2026-04-21 09:22 | 52.46798 | 5.53601 | 843 ft | 79 kts | 24° |
| 2026-04-21 09:22 | 52.47339 | 5.53297 | 815 ft | 96 kts | 314° |
| 2026-04-21 09:23 | 52.47436 | 5.52195 | 759 ft | 110 kts | 252° |
| 2026-04-21 09:23 | 52.47010 | 5.51149 | 751 ft | 111 kts | 233° |
| 2026-04-21 09:23 | 52.46560 | 5.50202 | 753 ft | 100 kts | 230° |
| 2026-04-21 09:23 | 52.46129 | 5.49371 | 750 ft | 92 kts | 225° |
| 2026-04-21 09:24 | 52.45742 | 5.48552 | 682 ft | 90 kts | 232° |
| 2026-04-21 09:24 | 52.45385 | 5.47732 | 640 ft | 86 kts | 236° |
| 2026-04-21 09:24 | 52.44997 | 5.46989 | 625 ft | 87 kts | 224° |
| 2026-04-21 09:24 | 52.44496 | 5.46493 | 628 ft | 84 kts | 185° |
| 2026-04-21 09:25 | 52.43962 | 5.46804 | 519 ft | 84 kts | 125° |
| 2026-04-21 09:25 | 52.43624 | 5.47470 | 505 ft | 70 kts | 117° |
| 2026-04-21 09:25 | 52.43562 | 5.48135 | 364 ft | 62 kts | 66° |
| 2026-04-21 09:25 | 52.43800 | 5.48707 | 243 ft | 62 kts | 43° |
| 2026-04-21 09:26 | 52.44094 | 5.49183 | 199 ft | 58 kts | 53° |
| 2026-04-21 09:26 | 52.44339 | 5.49682 | 119 ft | 57 kts | 49° |
| 2026-04-21 09:26 | 52.44599 | 5.50151 | 58 ft | 53 kts | 50° |
| 2026-04-21 09:26 | 52.44852 | 5.50607 | -2 ft | 53 kts | 48° |
| 2026-04-21 09:27 | 52.45031 | 5.50938 | -11 ft | 29 kts | 50° |